Hlavní strana
METAR-TAF:

METAR-TAF

Letiště :

Gatlinburg, Tennessee, Spojené státy americké

zeměpisná šířka: 35-51-28N, zeměpisná délka: 083-31-43W, výška: 309 m

Aktuální stav počasí

Zpráva byla vytvořena před 7 minutami, v 22:55 UTC
Západní vítr 9 kt s nárazy do 17 kt, proměnlivý mezi západojihozápadním a severozápadním
Teplota 3°C
Vlhkost vzduchu 93%
Tlak 1015 hPa
Viditelnost: 8.0 km
Oblačno až skoro zataženo ve výšce 900 ft
Zataženo ve výšce 1300 ft
kouřmo

METAR: KGKT 152255Z AUTO 27009G17KT 240V320 5SM BR BKN009 OVC013 03/02 A2998 RMK A01

Čas: 17:02 (23:02 UTC)


TAF: chybějící

Stav a předpovědi počasí z více než 4 000 letišť (zprávy METAR a TAF).

Červené a žluté tečky na mapě představují dostupné meteorologické stanice.

Když kurzor umístíte na tečku, zobrazí se název stanice.

Pak kliknutím zobrazíte stav a předpověď počasí.

Chcete-li změnit mapu, kliknutím na zelené tlačítko se znaménkem +mapu přiblížíte, kliknutím na zelené tlačítko se znaménkem – mapu oddálíte a kliknutím na zelené šipky přejdete na sousední mapy.


METAR-TAF: